CYTZ/YTZ METAR and TAF weather

Enter ICAO airport designator
Station Type Date Time Source
CYTZ METAR 2017/08/21 23:00 UTC NOAA

CYTZ 212300Z AUTO 18008KT 9SM CLR 24/21 A3000 RMK SLP161 DENSITY ALT 1200FT


Station Type Date Time Source
CYTZ Decoded METAR 2017/08/21 23:00 UTC NOAA

Toronto Island Airport Automated Reporting Station, Canada (CYTZ) 43-38N 079-24W
Aug 21, 2017 - 07:00 PM EDT / 2017.08.21 2300 UTC
Wind: from the S (180 degrees) at 9 MPH (8 KT):0
Visibility: 9 mile(s):0
Sky conditions: clear
Temperature: 75 F (24 C)
Dew Point: 69 F (21 C)
Relative Humidity: 83%
Pressure (altimeter): 30 in. Hg (1015 hPa)
ob: CYTZ 212300Z AUTO 18008KT 9SM CLR 24/21 A3000 RMK SLP161 DENSITY ALT 1200FT
cycle: 23

Station Type Date Time Source
CYTZ TAF 2017/08/21 20:42 UTC NOAA

TAF CYTZ 211939Z 2120/2220 17008KT P6SM FEW050
FM220200 21008KT P6SM FEW050
FM221100 21012KT P6SM FEW012 SCT060 BKN240
BECMG 2212/2214 21012G22KT
FM221500 22018G28KT P6SM -SHRA SCT020 BKN050 OVC210 PROB30 2216/2220 VRB25G40KT 1SM +TSRA BR BKN008 OVC040CB
RMK FCST BASED ON AUTO OBS. NXT FCST BY 220200Z


Example: see airport list